メインページ
METAR-TAF:

METAR-TAF

空港 :

長崎, 日本

長崎空港

緯度: 32-55N, 経度: 129-55E, 海抜: 2m

現時点の気象観測

当レポートは24分前の06:00(UTC)に作成
南/南東の風 3kt、からの間で変化する
気温 10°C
湿度 46%
気圧 1020 hPa
視程10km以上
1,500メートル以下は雲なし、積乱雲なし

METAR: RJFU 180600Z 16003KT 010V180 CAVOK 10/M01 Q1020

時間: 15:24 (06:24 UTC)

予報

当レポートは1時間17分前の05:07(UTC)に作成
予報は18日の 06時(UTC)から 19日の 12時(UTC)まで有効
北西の風 4kt
視程10km以上
1,500メートル以下は雲なし、積乱雲なし
18日の 11時(UTC)から 18日の 13時(UTC)まで徐々に
南東の風 5kt
19日の 03時(UTC)から 19日の 06時(UTC)まで徐々に
北東の風 7kt
19日の 03時(UTC)から 19日の 12時(UTC)まで一時的に
視程: 4000m
弱いにわか雨, 靄

TAF: RJFU 180507Z 1806/1912 31004KT CAVOK BECMG 1811/1813 14005KT BECMG 1903/1906 04007KT TEMPO 1903/1912 4000 -SHRA BR

4,000以上の空港の気象観測と天気予報(METAR報とTAF報)

利用可能な観測所は地図上に黄色い丸と赤い丸で示す。

丸の上にカーソルを重ねると観測所名を参照できる。

次にクリックすると気象観測と天気予報を参照できる。

マップの切り替え:黒色「×」印の緑ボタンをクリックして拡大、「-」印の緑ボタンをクリックして縮小、緑色の三角印をクリックして隣りの地図に切り替え


METAR-TAF: